createdAt,value
2018-04-13T00:01:49.245Z,46.50
2018-04-13T00:04:19.015Z,36.25
2018-04-13T00:06:48.567Z,34.80
2018-04-13T00:09:17.891Z,29.60
2018-04-13T00:11:47.139Z,37.92
2018-04-13T00:14:17.374Z,36.33
2018-04-13T00:16:47.648Z,33.10
2018-04-13T00:19:17.182Z,32.15
2018-04-13T00:21:46.494Z,31.30
2018-04-13T00:24:15.819Z,39.65
2018-04-13T00:26:45.052Z,40.47
2018-04-13T00:29:14.288Z,38.70
2018-04-13T00:31:44.609Z,38.20
2018-04-13T00:34:13.843Z,35.92
2018-04-13T00:36:43.512Z,35.95
2018-04-13T00:39:12.744Z,36.17
2018-04-13T00:41:43.439Z,38.40
2018-04-13T00:44:13.108Z,37.78
2018-04-13T00:46:42.451Z,38.35
2018-04-13T00:49:11.695Z,35.30
2018-04-13T00:51:41.063Z,36.97
2018-04-13T00:54:10.297Z,39.42
2018-04-13T00:56:39.657Z,38.53
2018-04-13T00:59:09.972Z,45.05
2018-04-13T01:01:39.491Z,38.35
2018-04-13T01:04:09.800Z,38.65
2018-04-13T01:06:39.263Z,37.10
2018-04-13T01:09:08.503Z,37.60
2018-04-13T01:11:37.919Z,40.53
2018-04-13T01:14:07.163Z,40.60
2018-04-13T01:16:36.524Z,40.90
2018-04-13T01:19:05.759Z,39.17
2018-04-13T01:21:35.535Z,43.13
2018-04-13T01:24:05.490Z,38.72
2018-04-13T01:26:35.060Z,36.63
2018-04-13T01:29:04.468Z,46.13
2018-04-13T01:31:34.484Z,46.75
2018-04-13T01:34:03.846Z,39.33
2018-04-13T01:36:33.712Z,42.47
2018-04-13T01:39:03.060Z,43.70
2018-04-13T01:41:32.309Z,39.78
2018-04-13T01:44:01.899Z,35.85
2018-04-13T01:46:31.932Z,43.22
2018-04-13T01:49:01.753Z,41.00
2018-04-13T01:51:31.747Z,43.05
2018-04-13T01:54:01.496Z,41.35
2018-04-13T01:56:30.781Z,43.97
2018-04-13T01:59:05.694Z,39.85
2018-04-13T02:01:35.142Z,48.53
2018-04-13T02:04:04.510Z,43.13
2018-04-13T02:06:34.511Z,48.50
2018-04-13T02:09:03.928Z,45.08
2018-04-13T02:11:33.583Z,39.72
2018-04-13T02:14:03.139Z,45.33
2018-04-13T02:16:32.371Z,46.10
2018-04-13T02:19:02.510Z,48.00
2018-04-13T02:21:31.746Z,46.42
2018-04-13T02:24:01.163Z,39.28
2018-04-13T02:26:30.991Z,42.17
2018-04-13T02:29:00.235Z,40.70
2018-04-13T02:31:30.301Z,42.25
2018-04-13T02:34:00.050Z,38.92
2018-04-13T02:36:29.907Z,44.17
2018-04-13T02:38:59.827Z,44.95
2018-04-13T02:41:29.361Z,42.65
2018-04-13T02:43:59.351Z,43.80
2018-04-13T02:46:28.980Z,46.42
2018-04-13T02:48:58.611Z,51.88
2018-04-13T02:51:28.191Z,42.42
2018-04-13T02:53:57.939Z,43.58
2018-04-13T02:56:27.416Z,50.25
2018-04-13T02:58:57.753Z,42.20
2018-04-13T03:01:27.874Z,44.03
2018-04-13T03:03:57.885Z,45.60
2018-04-13T03:06:27.518Z,41.63
2018-04-13T03:08:57.507Z,51.58
2018-04-13T03:11:26.893Z,45.33
2018-04-13T03:13:56.133Z,45.33
2018-04-13T03:16:25.894Z,43.28
2018-04-13T03:18:56.866Z,42.08
2018-04-13T03:21:27.173Z,48.55
2018-04-13T03:23:57.170Z,47.62
2018-04-13T03:26:26.578Z,45.95
2018-04-13T03:28:55.803Z,42.00
2018-04-13T03:31:25.034Z,45.35
2018-04-13T03:33:54.490Z,45.15
2018-04-13T03:36:23.728Z,46.75
2018-04-13T03:38:53.088Z,44.85
2018-04-13T03:41:22.307Z,57.33
2018-04-13T03:43:51.691Z,46.13
2018-04-13T03:46:21.483Z,47.25
2018-04-13T03:48:52.165Z,41.53
2018-04-13T03:51:22.794Z,49.67
2018-04-13T03:53:52.643Z,53.67
2018-04-13T03:56:21.872Z,43.53
2018-04-13T03:58:51.387Z,47.03
2018-04-13T04:01:20.916Z,47.10
2018-04-13T04:03:51.454Z,47.45
2018-04-13T04:06:21.464Z,57.60
2018-04-13T04:08:50.771Z,46.83
2018-04-13T04:11:20.010Z,52.85
2018-04-13T04:13:49.568Z,50.20
2018-04-13T04:16:18.810Z,44.47
2018-04-13T04:18:50.094Z,52.15
2018-04-13T04:21:36.887Z,42.95
2018-04-13T04:24:24.126Z,57.05
2018-04-13T04:26:53.348Z,48.58
2018-04-13T04:29:22.930Z,49.88
2018-04-13T04:31:52.762Z,51.60
2018-04-13T04:34:22.155Z,52.22
2018-04-13T04:36:51.378Z,53.10
2018-04-13T04:39:22.410Z,47.60
2018-04-13T04:41:52.411Z,51.35
2018-04-13T04:44:21.685Z,49.67
2018-04-13T04:46:51.122Z,66.78
2018-04-13T04:49:20.343Z,49.20
2018-04-13T04:51:50.531Z,55.63
2018-04-13T04:54:20.008Z,48.35
2018-04-13T04:56:49.334Z,45.08
2018-04-13T04:59:18.565Z,55.05
2018-04-13T05:01:47.931Z,61.22
2018-04-13T05:04:17.159Z,50.75
2018-04-13T05:06:46.567Z,47.28
2018-04-13T05:09:17.298Z,53.75
2018-04-13T05:11:48.266Z,45.92
2018-04-13T05:14:17.450Z,55.33
2018-04-13T05:16:47.449Z,48.47
2018-04-13T05:19:17.509Z,52.15
2018-04-13T05:21:47.063Z,49.15
2018-04-13T05:24:16.870Z,51.05
2018-04-13T05:26:46.271Z,46.03
2018-04-13T05:29:15.558Z,49.55
2018-04-13T05:31:44.926Z,49.75
2018-04-13T05:34:14.923Z,51.67
2018-04-13T05:36:44.241Z,50.00
2018-04-13T05:39:13.475Z,47.85
2018-04-13T05:41:42.806Z,52.80
2018-04-13T05:44:12.214Z,47.90
2018-04-13T05:46:42.322Z,54.70
2018-04-13T05:49:12.190Z,50.53
2018-04-13T05:51:41.538Z,49.30
2018-04-13T05:54:10.774Z,41.60
2018-04-13T05:56:40.765Z,47.85
2018-04-13T05:59:10.090Z,46.28
2018-04-13T06:01:39.562Z,46.20
2018-04-13T06:04:10.166Z,44.85
2018-04-13T06:06:39.830Z,46.85
2018-04-13T06:09:11.052Z,46.83
2018-04-13T06:11:40.282Z,40.67
2018-04-13T06:14:09.746Z,46.08
2018-04-13T06:16:39.075Z,50.92
2018-04-13T06:19:08.555Z,42.90
2018-04-13T06:21:38.683Z,45.30
2018-04-13T06:24:08.181Z,44.13
2018-04-13T06:26:37.430Z,40.90
2018-04-13T06:29:06.773Z,41.42
2018-04-13T06:31:36.015Z,44.05
2018-04-13T06:34:06.003Z,40.08
2018-04-13T06:36:35.238Z,45.80
2018-04-13T06:39:04.602Z,48.83
2018-04-13T06:41:33.840Z,39.97
2018-04-13T06:44:03.207Z,44.15
2018-04-13T06:46:32.986Z,45.10
2018-04-13T06:49:03.238Z,44.85
2018-04-13T06:51:33.408Z,40.95
2018-04-13T06:54:02.879Z,39.58
2018-04-13T06:56:32.117Z,41.70
2018-04-13T06:59:01.469Z,40.63
2018-04-13T07:01:30.701Z,43.00
2018-04-13T07:04:00.895Z,42.15
2018-04-13T07:06:31.455Z,39.20
2018-04-13T07:09:00.921Z,44.45
2018-04-13T07:11:30.158Z,40.97
2018-04-13T07:13:59.531Z,40.50
2018-04-13T07:16:29.038Z,45.17
2018-04-13T07:18:58.272Z,43.42
2018-04-13T07:21:27.839Z,43.55
2018-04-13T07:23:58.235Z,36.67
2018-04-13T07:26:28.206Z,42.45
2018-04-13T07:28:57.449Z,42.40
2018-04-13T07:31:26.974Z,41.20
2018-04-13T07:33:56.918Z,40.50
2018-04-13T07:36:26.719Z,44.60
2018-04-13T07:38:56.875Z,42.10
2018-04-13T07:41:26.342Z,50.80
2018-04-13T07:43:57.194Z,44.60
2018-04-13T07:46:26.586Z,43.80
2018-04-13T07:48:55.838Z,53.08
2018-04-13T07:51:25.206Z,51.50
2018-04-13T07:53:55.294Z,47.72
2018-04-13T07:56:25.164Z,60.47
2018-04-13T07:58:54.400Z,49.58
2018-04-13T08:01:23.835Z,57.70
2018-04-13T08:03:53.063Z,53.42
2018-04-13T08:06:22.450Z,51.97
2018-04-13T08:08:52.646Z,48.65
2018-04-13T08:11:22.669Z,52.45
2018-04-13T08:13:51.905Z,48.65
2018-04-13T08:16:22.706Z,48.10
2018-04-13T08:18:51.942Z,49.38
2018-04-13T08:21:21.183Z,45.65
2018-04-13T08:23:51.112Z,50.90
2018-04-13T08:26:20.341Z,51.35
2018-04-13T08:28:50.286Z,54.47
2018-04-13T08:31:19.526Z,50.75
2018-04-13T08:33:49.043Z,50.60
2018-04-13T08:36:18.289Z,47.05
2018-04-13T08:38:47.638Z,60.70
2018-04-13T08:41:17.190Z,58.03
2018-04-13T08:43:46.649Z,53.92
2018-04-13T08:46:16.034Z,50.42
2018-04-13T08:48:45.933Z,45.55
2018-04-13T08:51:15.109Z,50.72
2018-04-13T08:53:44.466Z,51.20
2018-04-13T08:56:14.224Z,49.42
2018-04-13T08:58:43.686Z,48.72
2018-04-13T09:01:12.938Z,52.35
2018-04-13T09:03:42.494Z,53.05
2018-04-13T09:06:13.046Z,48.72
2018-04-13T09:08:42.525Z,51.78
2018-04-13T09:11:12.567Z,51.83
2018-04-13T09:13:42.564Z,50.92
2018-04-13T09:16:12.578Z,58.67
2018-04-13T09:18:41.931Z,51.95
2018-04-13T09:21:11.194Z,57.70
2018-04-13T09:23:41.205Z,53.10
2018-04-13T09:26:11.220Z,50.17
2018-04-13T09:28:40.592Z,62.35
2018-04-13T09:31:09.830Z,60.07
2018-04-13T09:33:39.475Z,61.67
2018-04-13T09:36:09.036Z,59.37
2018-04-13T09:38:38.638Z,58.43
2018-04-13T09:41:08.515Z,54.80
2018-04-13T09:43:37.749Z,70.27
2018-04-13T09:46:07.211Z,62.60
2018-04-13T09:48:36.402Z,61.20
2018-04-13T09:51:05.758Z,59.73
2018-04-13T09:53:35.410Z,50.20
2018-04-13T09:56:04.977Z,48.90
2018-04-13T09:58:34.726Z,72.17
2018-04-13T10:01:05.635Z,55.33
2018-04-13T10:03:40.322Z,52.20
2018-04-13T10:06:09.759Z,53.17
2018-04-13T10:08:39.773Z,51.15
2018-04-13T10:11:09.125Z,54.90
2018-04-13T10:13:38.983Z,55.40
2018-04-13T10:16:08.394Z,60.43
2018-04-13T10:18:39.823Z,59.15
2018-04-13T10:21:09.258Z,56.08
2018-04-13T10:23:39.631Z,57.38
2018-04-13T10:26:09.496Z,62.53
2018-04-13T10:28:38.998Z,57.03
2018-04-13T10:31:08.237Z,56.58
2018-04-13T10:33:37.606Z,59.63
2018-04-13T10:36:08.234Z,54.83
2018-04-13T10:38:38.453Z,58.45
2018-04-13T10:41:08.974Z,61.10
2018-04-13T10:43:38.491Z,55.22
2018-04-13T10:46:09.351Z,54.15
2018-04-13T10:48:38.735Z,67.15
2018-04-13T10:51:08.751Z,59.88
2018-04-13T10:53:38.165Z,61.13
2018-04-13T10:56:08.176Z,72.40
2018-04-13T10:58:37.570Z,63.40
2018-04-13T11:01:06.817Z,54.65
2018-04-13T11:03:36.385Z,63.35
2018-04-13T11:06:07.522Z,62.40
2018-04-13T11:08:37.051Z,59.20
2018-04-13T11:11:07.082Z,54.67
2018-04-13T11:13:36.458Z,63.55
2018-04-13T11:16:06.467Z,62.10
2018-04-13T11:18:35.877Z,65.00
2018-04-13T11:21:05.109Z,60.22
2018-04-13T11:23:34.674Z,58.53
2018-04-13T11:26:04.486Z,66.28
2018-04-13T11:28:33.733Z,58.75
2018-04-13T11:31:03.191Z,62.38
2018-04-13T11:33:32.478Z,61.65
2018-04-13T11:36:02.618Z,66.60
2018-04-13T11:38:33.258Z,59.92
2018-04-13T11:41:02.648Z,64.55
2018-04-13T11:43:31.896Z,60.17
2018-04-13T11:46:01.260Z,62.17
2018-04-13T11:48:31.262Z,66.53
2018-04-13T11:51:01.322Z,59.58
2018-04-13T11:53:30.653Z,56.00
2018-04-13T11:56:00.008Z,63.13
2018-04-13T11:58:29.253Z,63.60
2018-04-13T12:00:58.701Z,61.50
2018-04-13T12:03:27.945Z,58.45
2018-04-13T12:05:57.513Z,64.20
2018-04-13T12:08:28.362Z,59.95
2018-04-13T12:10:57.737Z,66.10
2018-04-13T12:13:26.999Z,67.80
2018-04-13T12:15:56.545Z,70.60
2018-04-13T12:18:26.547Z,55.63
2018-04-13T12:20:56.381Z,63.47
2018-04-13T12:23:25.625Z,62.88
2018-04-13T12:25:55.690Z,68.43
2018-04-13T12:28:25.550Z,69.78
2018-04-13T12:30:55.014Z,71.55
2018-04-13T12:33:24.250Z,63.97
2018-04-13T12:35:53.637Z,65.43
2018-04-13T12:38:24.396Z,70.75
2018-04-13T12:40:53.857Z,68.35
2018-04-13T12:43:23.098Z,69.87
2018-04-13T12:45:53.078Z,77.20
2018-04-13T12:48:22.751Z,78.12
2018-04-13T12:50:51.999Z,70.62
2018-04-13T12:53:21.431Z,71.10
2018-04-13T12:55:50.651Z,66.10
2018-04-13T12:58:19.990Z,60.35
2018-04-13T13:00:49.610Z,66.60
2018-04-13T13:03:19.014Z,58.55
2018-04-13T13:05:48.259Z,61.65
2018-04-13T13:08:17.805Z,58.75
2018-04-13T13:10:47.179Z,59.58
2018-04-13T13:13:17.231Z,55.40
2018-04-13T13:15:46.770Z,66.12
2018-04-13T13:18:16.241Z,62.95
2018-04-13T13:20:45.488Z,60.83
2018-04-13T13:23:15.554Z,65.20
2018-04-13T13:25:45.602Z,57.05
2018-04-13T13:28:15.925Z,52.70
2018-04-13T13:30:45.183Z,59.72
2018-04-13T13:33:14.495Z,51.80
2018-04-13T13:35:43.739Z,52.05
2018-04-13T13:38:13.210Z,59.58
2018-04-13T13:40:42.454Z,49.67
2018-04-13T13:43:11.814Z,51.83
2018-04-13T13:45:41.254Z,51.22
2018-04-13T13:48:11.037Z,45.33
2018-04-13T13:50:41.262Z,48.75
2018-04-13T13:53:10.660Z,57.45
2018-04-13T13:55:40.157Z,54.85
2018-04-13T13:58:09.394Z,42.35
2018-04-13T14:00:38.766Z,49.80
2018-04-13T14:03:08.024Z,46.42
2018-04-13T14:05:37.369Z,50.15
2018-04-13T14:08:06.606Z,46.67
2018-04-13T14:10:35.981Z,45.28
2018-04-13T14:13:05.996Z,48.00
2018-04-13T14:15:35.836Z,41.45
2018-04-13T14:18:05.089Z,47.72
2018-04-13T14:20:34.537Z,49.38
2018-04-13T14:23:03.791Z,44.58
2018-04-13T14:25:34.859Z,47.42
2018-04-13T14:28:04.887Z,43.83
2018-04-13T14:30:34.257Z,42.08
2018-04-13T14:33:03.502Z,47.67
2018-04-13T14:35:32.970Z,49.70
2018-04-13T14:38:03.082Z,38.10
2018-04-13T14:40:32.594Z,36.40
2018-04-13T14:43:02.242Z,38.78
2018-04-13T14:45:32.218Z,42.60
2018-04-13T14:48:01.599Z,46.60
2018-04-13T14:50:30.833Z,39.63
2018-04-13T14:53:01.142Z,66.60
2018-04-13T14:55:30.383Z,39.00
2018-04-13T14:58:00.359Z,41.35
2018-04-13T15:00:30.267Z,50.45
2018-04-13T15:02:59.618Z,37.80
2018-04-13T15:05:28.859Z,46.50
2018-04-13T15:07:58.386Z,45.20
2018-04-13T15:10:28.179Z,44.90
2018-04-13T15:12:57.679Z,46.05
2018-04-13T15:15:26.918Z,44.25
2018-04-13T15:17:57.146Z,41.20
2018-04-13T15:20:26.379Z,46.97
2018-04-13T15:22:55.831Z,50.47
2018-04-13T15:25:25.068Z,53.25
2018-04-13T15:27:54.426Z,47.35
2018-04-13T15:30:24.209Z,45.80
2018-04-13T15:32:53.650Z,53.20
2018-04-13T15:35:23.670Z,45.58
2018-04-13T15:37:53.492Z,42.83
2018-04-13T15:40:23.100Z,56.78
2018-04-13T15:42:52.326Z,52.78
2018-04-13T15:45:21.694Z,51.03
2018-04-13T15:47:52.426Z,49.95
2018-04-13T15:50:21.787Z,50.83
2018-04-13T15:52:51.027Z,50.47
2018-04-13T15:55:20.517Z,48.95
2018-04-13T15:57:49.766Z,47.60
2018-04-13T16:00:19.135Z,46.70
2018-04-13T16:02:48.373Z,46.65
2018-04-13T16:05:17.764Z,49.38
2018-04-13T16:07:46.998Z,46.28
2018-04-13T16:10:16.561Z,60.80
2018-04-13T16:12:45.774Z,50.08
2018-04-13T16:15:16.782Z,49.88
2018-04-13T16:17:46.256Z,50.55
2018-04-13T16:20:15.490Z,42.40
2018-04-13T16:22:44.883Z,51.85
2018-04-13T16:25:14.134Z,44.55
2018-04-13T16:27:43.920Z,47.72
2018-04-13T16:30:13.127Z,52.10
2018-04-13T16:32:43.313Z,58.70
2018-04-13T16:35:13.476Z,49.80
2018-04-13T16:37:42.946Z,61.17
2018-04-13T16:40:12.194Z,50.30
2018-04-13T16:42:42.581Z,50.97
2018-04-13T16:45:12.525Z,54.45
2018-04-13T16:47:41.985Z,59.85
2018-04-13T16:50:11.227Z,62.55
2018-04-13T16:52:40.594Z,47.97
2018-04-13T16:55:09.840Z,50.15
2018-04-13T16:57:39.397Z,53.00
2018-04-13T17:00:08.795Z,59.42
2018-04-13T17:02:38.206Z,56.08
2018-04-13T17:05:07.493Z,53.72
2018-04-13T17:07:37.042Z,59.88
2018-04-13T17:10:06.640Z,50.47
2018-04-13T17:12:36.055Z,56.50
2018-04-13T17:15:05.302Z,57.62
2018-04-13T17:17:34.535Z,53.80
2018-04-13T17:20:04.768Z,53.28
2018-04-13T17:22:34.763Z,56.45
2018-04-13T17:25:04.166Z,55.67
2018-04-13T17:27:33.411Z,57.65
2018-04-13T17:30:02.987Z,66.05
2018-04-13T17:32:32.220Z,57.65
2018-04-13T17:35:01.998Z,61.10
2018-04-13T17:37:31.238Z,59.03
2018-04-13T17:40:01.711Z,54.95
2018-04-13T17:42:31.037Z,52.88
2018-04-13T17:45:00.422Z,60.83
2018-04-13T17:47:29.814Z,56.33
2018-04-13T17:49:59.220Z,54.58
2018-04-13T17:52:29.666Z,53.67
2018-04-13T17:54:59.064Z,60.58
2018-04-13T17:57:28.632Z,57.97
2018-04-13T17:59:58.693Z,55.70
2018-04-13T18:02:27.925Z,50.22
2018-04-13T18:04:57.283Z,58.35
2018-04-13T18:07:27.004Z,64.50
2018-04-13T18:09:57.090Z,60.47
2018-04-13T18:12:26.325Z,77.85
2018-04-13T18:14:57.146Z,69.45
2018-04-13T18:17:26.588Z,72.50
2018-04-13T18:19:56.058Z,57.58
2018-04-13T18:22:25.290Z,56.72
2018-04-13T18:24:54.659Z,52.67
2018-04-13T18:27:24.009Z,47.33
2018-04-13T18:29:53.470Z,51.17
2018-04-13T18:32:22.711Z,47.45
2018-04-13T18:34:51.947Z,60.95
2018-04-13T18:37:21.778Z,53.95
2018-04-13T18:39:51.526Z,52.95
2018-04-13T18:42:21.201Z,62.45
2018-04-13T18:44:50.441Z,56.97
2018-04-13T18:47:20.627Z,55.17
2018-04-13T18:49:49.869Z,56.00
2018-04-13T18:52:19.344Z,60.25
2018-04-13T18:54:48.652Z,51.42
2018-04-13T18:57:18.032Z,56.10
2018-04-13T18:59:47.274Z,58.95
2018-04-13T19:02:16.642Z,56.17
2018-04-13T19:04:46.723Z,55.25
2018-04-13T19:07:16.873Z,53.42
2018-04-13T19:09:46.924Z,58.25
2018-04-13T19:12:17.119Z,60.20
2018-04-13T19:14:47.131Z,58.30
2018-04-13T19:17:16.545Z,60.40
2018-04-13T19:19:46.553Z,56.37
2018-04-13T19:22:15.970Z,61.25
2018-04-13T19:24:46.019Z,50.92
2018-04-13T19:27:16.198Z,53.90
2018-04-13T19:29:45.830Z,56.30
2018-04-13T19:32:16.053Z,58.75
2018-04-13T19:34:46.041Z,62.22
2018-04-13T19:37:15.726Z,57.45
2018-04-13T19:39:44.983Z,59.22
2018-04-13T19:42:14.217Z,60.05
2018-04-13T19:44:44.246Z,48.08
2018-04-13T19:47:13.718Z,54.67
2018-04-13T19:49:43.076Z,55.88
2018-04-13T19:52:12.531Z,53.03
2018-04-13T19:54:42.107Z,84.25
2018-04-13T19:57:11.311Z,63.87
2018-04-13T19:59:41.107Z,64.03
2018-04-13T20:02:10.333Z,60.22
2018-04-13T20:04:39.698Z,66.50
2018-04-13T20:07:09.838Z,66.32
2018-04-13T20:09:39.990Z,60.92
2018-04-13T20:12:10.070Z,59.83
2018-04-13T20:14:40.183Z,54.15
2018-04-13T20:17:09.746Z,58.38
2018-04-13T20:19:39.825Z,48.90
2018-04-13T20:22:09.947Z,74.28
2018-04-13T20:24:40.034Z,55.58
2018-04-13T20:27:09.368Z,66.75
2018-04-13T20:29:39.466Z,54.17
2018-04-13T20:32:08.715Z,57.10
2018-04-13T20:34:38.283Z,61.88
2018-04-13T20:37:07.807Z,57.80
2018-04-13T20:39:37.930Z,64.47
2018-04-13T20:42:08.730Z,60.45
2018-04-13T20:44:38.154Z,59.28
2018-04-13T20:47:07.537Z,66.20
2018-04-13T20:49:37.382Z,64.95
2018-04-13T20:52:07.593Z,61.10
2018-04-13T20:54:36.837Z,62.85
2018-04-13T20:59:39.682Z,55.05
2018-04-13T21:02:09.599Z,54.53
2018-04-13T21:04:38.854Z,64.53
2018-04-13T21:07:08.618Z,65.40
2018-04-13T21:09:37.858Z,67.15
2018-04-13T21:12:07.792Z,58.13
2018-04-13T21:14:37.344Z,60.25
2018-04-13T21:17:06.838Z,70.80
2018-04-13T21:19:36.081Z,61.70
2018-04-13T21:22:05.699Z,84.15
2018-04-13T21:24:34.917Z,60.10
2018-04-13T21:27:04.271Z,136.62
2018-04-13T21:29:33.518Z,63.92
2018-04-13T21:32:02.851Z,60.33
2018-04-13T21:34:32.088Z,55.83
2018-04-13T21:37:01.851Z,61.92
2018-04-13T21:39:31.082Z,96.15
2018-04-13T21:42:00.683Z,63.83
2018-04-13T21:44:30.691Z,100.78
2018-04-13T21:47:00.085Z,68.15
2018-04-13T21:49:29.531Z,113.20
2018-04-13T21:51:58.728Z,65.12
2018-04-13T21:54:28.053Z,64.07
2018-04-13T21:56:57.271Z,61.45
2018-04-13T21:59:26.803Z,165.57
2018-04-13T22:01:56.026Z,94.65
2018-04-13T22:04:25.351Z,98.28
2018-04-13T22:06:54.579Z,63.53
2018-04-13T22:09:23.924Z,79.37
2018-04-13T22:11:53.149Z,72.03
2018-04-13T22:14:40.003Z,82.22
2018-04-13T22:17:09.232Z,116.10
2018-04-13T22:19:38.613Z,99.37
2018-04-13T22:22:08.078Z,131.80
2018-04-13T22:24:37.420Z,73.87
2018-04-13T22:27:06.650Z,97.20
2018-04-13T22:29:36.045Z,70.82
2018-04-13T22:32:05.254Z,110.47
2018-04-13T22:34:35.307Z,83.80
2018-04-13T22:37:05.254Z,77.90
2018-04-13T22:39:35.487Z,91.35
2018-04-13T22:42:04.710Z,99.45
2018-04-13T22:44:34.282Z,90.93
2018-04-13T22:47:03.937Z,72.40
2018-04-13T22:49:33.170Z,147.87
2018-04-13T22:52:02.602Z,94.45
2018-04-13T22:54:32.039Z,121.40
2018-04-13T22:57:01.639Z,92.07
2018-04-13T22:59:32.534Z,110.22
2018-04-13T23:02:02.059Z,80.82
2018-04-13T23:04:31.290Z,77.15
2018-04-13T23:07:00.655Z,76.20
2018-04-13T23:09:29.891Z,73.72
2018-04-13T23:11:59.262Z,65.30
2018-04-13T23:14:28.516Z,66.45
2018-04-13T23:16:58.062Z,64.28
2018-04-13T23:19:27.306Z,73.32
2018-04-13T23:21:56.665Z,69.95
2018-04-13T23:24:26.417Z,50.28
2018-04-13T23:26:55.886Z,75.53
2018-04-13T23:29:25.458Z,66.87
2018-04-13T23:31:54.798Z,64.62
2018-04-13T23:34:24.424Z,67.82
2018-04-13T23:36:54.524Z,65.53
2018-04-13T23:39:24.843Z,59.88
2018-04-13T23:41:55.436Z,69.55
2018-04-13T23:44:24.881Z,69.00
2018-04-13T23:46:54.590Z,60.55
2018-04-13T23:49:24.037Z,67.20
2018-04-13T23:51:53.268Z,69.12
2018-04-13T23:54:22.700Z,64.40
2018-04-13T23:56:52.155Z,66.47
2018-04-13T23:59:21.506Z,66.32
